Time;durP1;ratioP1;P1;durP2;ratioP2;P2;SDS_P1;SDS_P2;PMS_P1;PMS_P2;Temp;Humidity;BMP_temperature;BMP_pressure;BME280_temperature;BME280_humidity;BME280_pressure;Samples;Min_cycle;Max_cycle;Signal;HPM_P1;HPM_P2
2021/07/25 00:00:42;0.00;0.00;0.62;0.00;0.00;0.62;12.30;11.10;;;28.30;41.40;;;;;;2265439;61;20550;-57
2021/07/25 00:03:09;0.00;0.00;0.62;0.00;0.00;0.62;13.47;12.07;;;28.30;41.40;;;;;;2263794;61;20386;-56
2021/07/25 00:05:39;0.00;0.00;0.62;0.00;0.00;0.62;14.10;12.70;;;28.30;42.10;;;;;;2261274;61;20783;-59
2021/07/25 00:08:13;0.00;0.00;0.62;0.00;0.00;0.62;14.10;12.70;;;28.30;41.60;;;;;;2261400;61;20363;-60
2021/07/25 00:10:41;0.00;0.00;0.62;0.00;0.00;0.62;14.70;13.30;;;28.30;41.70;;;;;;2260830;61;20653;-59
2021/07/25 00:13:08;0.00;0.00;0.62;0.00;0.00;0.62;12.83;11.53;;;28.30;41.90;;;;;;2260945;61;20391;-59
2021/07/25 00:15:35;0.00;0.00;0.62;0.00;0.00;0.62;13.97;12.57;;;28.30;41.90;;;;;;2261488;61;20406;-57
2021/07/25 00:18:02;0.00;0.00;0.62;0.00;0.00;0.62;18.23;12.77;;;28.30;41.80;;;;;;2263548;61;20579;-54
2021/07/25 00:20:29;0.00;0.00;0.62;0.00;0.00;0.62;16.50;13.77;;;28.30;41.70;;;;;;2265629;61;20400;-57
2021/07/25 00:22:57;0.00;0.00;0.62;0.00;0.00;0.62;16.70;14.93;;;28.30;41.70;;;;;;2266123;61;20729;-59
2021/07/25 00:25:25;0.00;0.00;0.62;0.00;0.00;0.62;17.50;13.90;;;28.30;42.00;;;;;;2265568;61;20820;-58
2021/07/25 00:27:52;0.00;0.00;0.62;0.00;0.00;0.62;18.00;13.43;;;28.30;42.10;;;;;;2265941;61;20358;-57
2021/07/25 00:30:21;0.00;0.00;0.62;0.00;0.00;0.62;15.03;13.53;;;28.30;42.10;;;;;;2265881;61;20353;-55
2021/07/25 00:32:50;0.00;0.00;0.62;0.00;0.00;0.62;16.30;14.60;;;28.30;42.10;;;;;;2265475;61;20753;-58
2021/07/25 00:35:19;0.00;0.00;0.62;0.00;0.00;0.62;15.60;13.50;;;28.30;42.20;;;;;;2265787;61;20581;-60
2021/07/25 00:37:52;0.00;0.00;0.62;0.00;0.00;0.62;14.43;12.90;;;28.20;42.10;;;;;;2265789;61;20351;-57
2021/07/25 00:40:34;0.00;0.00;0.62;0.00;0.00;0.62;16.03;13.50;;;28.30;42.10;;;;;;2265265;61;20758;-61
2021/07/25 00:43:01;0.00;0.00;0.62;0.00;0.00;0.62;16.80;14.30;;;28.20;42.00;;;;;;2265665;61;20436;-59
2021/07/25 00:45:29;0.00;0.00;0.62;0.00;0.00;0.62;16.27;14.53;;;28.30;41.90;;;;;;2266084;61;20364;-51
2021/07/25 00:47:55;0.00;0.00;0.62;0.00;0.00;0.62;16.27;14.87;;;28.30;42.00;;;;;;2265644;61;20393;-59
2021/07/25 00:50:22;0.00;0.00;0.62;0.00;0.00;0.62;14.53;13.07;;;28.20;42.10;;;;;;2265762;61;20358;-58
2021/07/25 00:52:49;0.00;0.00;0.62;0.00;0.00;0.62;15.87;14.27;;;28.20;41.90;;;;;;2265841;61;20389;-57
2021/07/25 00:55:16;0.00;0.00;0.62;0.00;0.00;0.62;16.97;14.40;;;28.20;41.90;;;;;;2265415;61;20624;-57
2021/07/25 00:57:44;0.00;0.00;0.62;0.00;0.00;0.62;14.43;13.13;;;28.20;41.90;;;;;;2265796;61;20416;-57
2021/07/25 01:00:13;0.00;0.00;0.62;0.00;0.00;0.62;15.43;14.03;;;28.20;41.70;;;;;;2265629;61;20394;-59
2021/07/25 01:02:51;0.00;0.00;0.62;0.00;0.00;0.62;17.63;15.83;;;28.20;42.30;;;;;;2265252;61;20574;-54
2021/07/25 01:05:35;0.00;0.00;0.62;0.00;0.00;0.62;18.57;16.87;;;28.20;41.80;;;;;;2261542;61;20734;-57
2021/07/25 01:08:09;0.00;0.00;0.62;0.00;0.00;0.62;16.07;14.47;;;28.20;42.00;;;;;;2262056;61;20362;-58
2021/07/25 01:10:37;0.00;0.00;0.62;0.00;0.00;0.62;16.93;15.23;;;28.20;41.90;;;;;;2261718;61;20396;-57
2021/07/25 01:13:12;0.00;0.00;0.62;0.00;0.00;0.62;16.43;14.70;;;28.20;41.80;;;;;;2261361;61;20469;-57
2021/07/25 01:15:41;0.00;0.00;0.62;0.00;0.00;0.62;16.60;15.00;;;28.20;41.80;;;;;;2261567;61;20347;-59
2021/07/25 01:18:07;0.00;0.00;0.62;0.00;0.00;0.62;17.53;15.80;;;28.20;41.70;;;;;;2264095;61;20389;-59
2021/07/25 01:20:35;0.00;0.00;0.62;0.00;0.00;0.62;17.60;15.90;;;28.20;41.80;;;;;;2265256;61;20353;-58
2021/07/25 01:23:03;0.00;0.00;0.62;0.00;0.00;0.62;16.83;15.23;;;28.20;41.70;;;;;;2265555;61;20409;-57
2021/07/25 01:25:30;0.00;0.00;0.62;0.00;0.00;0.62;16.23;14.53;;;28.20;42.30;;;;;;2266022;61;20358;-58
2021/07/25 01:28:03;0.00;0.00;0.62;0.00;0.00;0.62;18.43;16.53;;;28.20;41.50;;;;;;2265399;61;20598;-57
2021/07/25 01:30:32;0.00;0.00;0.62;0.00;0.00;0.62;15.53;14.03;;;28.30;41.60;;;;;;2265209;61;20377;-58
2021/07/25 01:33:03;0.00;0.00;0.62;0.00;0.00;0.62;18.47;16.00;;;28.30;41.60;;;;;;2265818;61;20390;-58
2021/07/25 01:35:31;0.00;0.00;0.62;0.00;0.00;0.62;18.40;16.50;;;28.30;41.50;;;;;;2265354;61;20342;-58
2021/07/25 01:37:59;0.00;0.00;0.62;0.00;0.00;0.62;19.60;17.80;;;28.30;41.40;;;;;;2265283;61;21035;-59
2021/07/25 01:40:27;0.00;0.00;0.62;0.00;0.00;0.62;19.80;17.90;;;28.30;41.50;;;;;;2265635;61;20354;-57
2021/07/25 01:42:55;0.00;0.00;0.62;0.00;0.00;0.62;22.17;19.67;;;28.30;41.50;;;;;;2265149;61;20374;-57
2021/07/25 01:45:22;0.00;0.00;0.62;0.00;0.00;0.62;23.23;20.80;;;28.30;41.60;;;;;;2265508;61;20354;-57
2021/07/25 01:47:49;0.00;0.00;0.62;0.00;0.00;0.62;22.30;20.10;;;28.30;41.60;;;;;;2265924;61;20358;-57
2021/07/25 01:50:16;0.00;0.00;0.62;0.00;0.00;0.62;22.43;20.20;;;28.20;41.50;;;;;;2261592;61;20350;-57
2021/07/25 01:52:44;0.00;0.00;0.62;0.00;0.00;0.62;22.90;20.50;;;28.20;41.50;;;;;;2265314;61;20382;-56
2021/07/25 01:55:13;0.00;0.00;0.62;0.00;0.00;0.62;19.87;17.17;;;28.20;41.50;;;;;;2265814;61;20698;-57
2021/07/25 01:57:40;0.00;0.00;0.62;0.00;0.00;0.62;23.77;21.47;;;28.20;41.50;;;;;;2265038;61;20369;-55
2021/07/25 02:00:08;0.00;0.00;0.62;0.00;0.00;0.62;24.70;22.07;;;28.20;41.50;;;;;;2265156;61;20577;-60
2021/07/25 02:02:35;0.00;0.00;0.62;0.00;0.00;0.62;24.87;22.47;;;28.10;41.50;;;;;;2265696;61;20384;-59
2021/07/25 02:05:03;0.00;0.00;0.62;0.00;0.00;0.62;22.90;20.67;;;28.10;41.70;;;;;;2261122;61;20664;-55
2021/07/25 02:07:29;0.00;0.00;0.62;0.00;0.00;0.62;23.63;21.13;;;28.10;41.60;;;;;;2261427;61;20402;-60
2021/07/25 02:09:56;0.00;0.00;0.62;0.00;0.00;0.62;25.47;22.87;;;28.00;41.60;;;;;;2261611;61;20355;-56
2021/07/25 02:12:24;0.00;0.00;0.62;0.00;0.00;0.62;26.27;23.57;;;28.00;41.60;;;;;;2261048;61;20605;-58
2021/07/25 02:14:50;0.00;0.00;0.62;0.00;0.00;0.62;29.10;24.40;;;28.00;41.60;;;;;;2261501;61;20590;-58
2021/07/25 02:17:17;0.00;0.00;0.62;0.00;0.00;0.62;26.90;24.10;;;28.00;41.60;;;;;;2262608;61;20385;-61
2021/07/25 02:19:44;0.00;0.00;0.62;0.00;0.00;0.62;25.87;23.27;;;27.90;41.50;;;;;;2264849;61;20357;-57
2021/07/25 02:22:11;0.00;0.00;0.62;0.00;0.00;0.62;25.90;23.40;;;27.90;41.60;;;;;;2265358;61;20358;-60
2021/07/25 02:24:39;0.00;0.00;0.62;0.00;0.00;0.62;25.80;23.17;;;27.80;41.60;;;;;;2265588;61;20350;-61
2021/07/25 02:27:06;0.00;0.00;0.62;0.00;0.00;0.62;25.70;23.10;;;27.70;41.60;;;;;;2265051;61;20350;-59
2021/07/25 02:29:34;0.00;0.00;0.62;0.00;0.00;0.62;25.57;23.03;;;27.70;41.70;;;;;;2265622;61;20389;-60
2021/07/25 02:32:01;0.00;0.00;0.62;0.00;0.00;0.62;24.10;21.60;;;27.70;41.70;;;;;;2265498;61;20369;-59
2021/07/25 02:34:27;0.00;0.00;0.62;0.00;0.00;0.62;23.47;21.07;;;27.70;41.70;;;;;;2265040;61;20381;-57
2021/07/25 02:36:54;0.00;0.00;0.62;0.00;0.00;0.62;22.07;19.97;;;27.60;41.70;;;;;;2265677;61;20724;-57
2021/07/25 02:39:21;0.00;0.00;0.62;0.00;0.00;0.62;21.20;19.00;;;27.60;41.70;;;;;;2265163;61;20399;-59
2021/07/25 02:41:48;0.00;0.00;0.62;0.00;0.00;0.62;18.47;16.67;;;27.60;41.70;;;;;;2264914;61;20361;-57
2021/07/25 02:44:14;0.00;0.00;0.62;0.00;0.00;0.62;18.60;16.70;;;27.60;41.70;;;;;;2261986;61;20370;-59
2021/07/25 02:46:42;0.00;0.00;0.62;0.00;0.00;0.62;21.37;19.27;;;27.60;41.70;;;;;;2265277;61;20416;-58
2021/07/25 02:49:09;0.00;0.00;0.62;0.00;0.00;0.62;21.40;19.30;;;27.60;41.70;;;;;;2265035;61;20369;-60
2021/07/25 02:51:35;0.00;0.00;0.62;0.00;0.00;0.62;19.43;17.60;;;27.60;41.70;;;;;;2265619;61;20436;-60
2021/07/25 02:54:02;0.00;0.00;0.62;0.00;0.00;0.62;18.60;16.70;;;27.60;41.70;;;;;;2265139;61;20382;-60
2021/07/25 02:56:29;0.00;0.00;0.62;0.00;0.00;0.62;22.17;19.97;;;27.60;41.70;;;;;;2265043;61;20359;-59
2021/07/25 02:58:55;0.00;0.00;0.62;0.00;0.00;0.62;21.77;19.50;;;27.60;41.70;;;;;;2265536;61;20361;-59
2021/07/25 03:01:22;0.00;0.00;0.62;0.00;0.00;0.62;20.47;18.57;;;27.60;41.70;;;;;;2264957;61;20365;-57
2021/07/25 03:03:50;0.00;0.00;0.62;0.00;0.00;0.62;19.37;17.57;;;27.60;41.70;;;;;;2262727;61;20383;-59
2021/07/25 03:06:17;0.00;0.00;0.62;0.00;0.00;0.62;20.10;18.27;;;27.60;41.70;;;;;;2261633;61;20368;-59
2021/07/25 03:08:44;0.00;0.00;0.62;0.00;0.00;0.62;19.50;17.63;;;27.60;41.70;;;;;;2261078;61;20355;-58
2021/07/25 03:11:10;0.00;0.00;0.62;0.00;0.00;0.62;17.43;15.83;;;27.60;41.70;;;;;;2260801;61;20359;-57
2021/07/25 03:13:38;0.00;0.00;0.62;0.00;0.00;0.62;16.37;14.87;;;27.60;41.70;;;;;;2261733;61;20447;-58
2021/07/25 03:16:06;0.00;0.00;0.62;0.00;0.00;0.62;15.70;14.10;;;27.60;41.70;;;;;;2260998;61;20362;-60
2021/07/25 03:18:34;0.00;0.00;0.62;0.00;0.00;0.62;17.70;16.00;;;27.60;41.70;;;;;;2263999;61;20432;-58
2021/07/25 03:21:03;0.00;0.00;0.62;0.00;0.00;0.62;17.17;15.50;;;27.60;41.70;;;;;;2265611;61;20384;-59
2021/07/25 03:23:30;0.00;0.00;0.62;0.00;0.00;0.62;15.67;14.27;;;27.70;41.70;;;;;;2261192;61;20377;-57
2021/07/25 03:25:57;0.00;0.00;0.62;0.00;0.00;0.62;23.10;15.53;;;27.70;41.70;;;;;;2257950;61;20407;-58
2021/07/25 03:28:23;0.00;0.00;0.62;0.00;0.00;0.62;15.33;13.83;;;27.70;41.70;;;;;;2265771;61;20354;-56
2021/07/25 03:30:50;0.00;0.00;0.62;0.00;0.00;0.62;14.50;13.17;;;27.70;41.60;;;;;;2264857;61;20350;-56
2021/07/25 03:33:19;0.00;0.00;0.62;0.00;0.00;0.62;15.53;14.03;;;27.70;41.50;;;;;;2264813;61;20382;-55
2021/07/25 03:35:47;0.00;0.00;0.62;0.00;0.00;0.62;14.90;13.60;;;27.70;41.50;;;;;;2262005;61;20361;-62
2021/07/25 03:38:16;0.00;0.00;0.62;0.00;0.00;0.62;16.73;15.13;;;27.80;41.50;;;;;;2264777;61;20400;-59
2021/07/25 03:40:44;0.00;0.00;0.62;0.00;0.00;0.62;16.40;14.97;;;27.80;41.50;;;;;;2264775;61;20358;-60
2021/07/25 03:43:13;0.00;0.00;0.62;0.00;0.00;0.62;17.23;15.43;;;27.80;41.40;;;;;;2265590;61;20366;-59
2021/07/25 03:45:42;0.00;0.00;0.62;0.00;0.00;0.62;19.10;17.07;;;27.80;41.40;;;;;;2264965;61;20350;-57
2021/07/25 03:48:09;0.00;0.00;0.62;0.00;0.00;0.62;18.63;16.63;;;27.80;41.40;;;;;;2264917;61;20358;-61
2021/07/25 03:50:36;0.00;0.00;0.62;0.00;0.00;0.62;19.23;17.23;;;27.80;41.30;;;;;;2265477;61;20355;-57
2021/07/25 03:53:06;0.00;0.00;0.62;0.00;0.00;0.62;20.07;18.17;;;27.80;41.30;;;;;;2265301;61;20390;-61
2021/07/25 03:55:34;0.00;0.00;0.62;0.00;0.00;0.62;22.77;20.43;;;27.80;41.30;;;;;;2265717;61;20694;-59
2021/07/25 03:58:01;0.00;0.00;0.62;0.00;0.00;0.62;20.60;18.37;;;27.80;41.30;;;;;;2266090;61;20431;-57
2021/07/25 04:00:29;0.00;0.00;0.62;0.00;0.00;0.62;20.20;18.20;;;27.70;41.30;;;;;;2265312;61;20433;-58
2021/07/25 04:02:55;0.00;0.00;0.62;0.00;0.00;0.62;21.10;18.53;;;27.70;41.20;;;;;;2264847;61;20382;-61
2021/07/25 04:05:24;0.00;0.00;0.62;0.00;0.00;0.62;21.30;19.10;;;27.70;41.20;;;;;;2262068;61;20354;-61
2021/07/25 04:07:50;0.00;0.00;0.62;0.00;0.00;0.62;21.60;19.33;;;27.70;41.30;;;;;;2261431;61;20358;-59
2021/07/25 04:10:17;0.00;0.00;0.62;0.00;0.00;0.62;19.27;17.33;;;27.70;41.30;;;;;;2257998;61;20355;-57
2021/07/25 04:12:46;0.00;0.00;0.62;0.00;0.00;0.62;19.37;17.27;;;27.70;41.30;;;;;;2262175;61;20508;-56
2021/07/25 04:15:13;0.00;0.00;0.62;0.00;0.00;0.62;17.40;15.83;;;27.60;41.30;;;;;;2261530;61;20354;-57
2021/07/25 04:17:40;0.00;0.00;0.62;0.00;0.00;0.62;16.90;15.20;;;27.60;41.30;;;;;;2259830;61;20369;-60
2021/07/25 04:20:08;0.00;0.00;0.62;0.00;0.00;0.62;18.13;16.30;;;27.60;41.30;;;;;;2266060;61;20354;-59
2021/07/25 04:22:37;0.00;0.00;0.62;0.00;0.00;0.62;17.10;15.47;;;27.60;41.30;;;;;;2265592;61;20385;-58
2021/07/25 04:25:06;0.00;0.00;0.62;0.00;0.00;0.62;17.47;15.87;;;27.60;41.30;;;;;;2266005;61;20349;-54
2021/07/25 04:27:34;0.00;0.00;0.62;0.00;0.00;0.62;20.07;18.03;;;27.60;41.30;;;;;;2262390;61;20361;-57
2021/07/25 04:30:03;0.00;0.00;0.62;0.00;0.00;0.62;19.60;16.83;;;27.60;41.30;;;;;;2258511;61;20686;-57
2021/07/25 04:32:31;0.00;0.00;0.62;0.00;0.00;0.62;18.20;16.40;;;27.60;41.30;;;;;;2265916;61;20381;-61
2021/07/25 04:34:57;0.00;0.00;0.62;0.00;0.00;0.62;19.83;17.90;;;27.60;41.30;;;;;;2266106;61;20596;-59
2021/07/25 04:37:29;0.00;0.00;0.62;0.00;0.00;0.62;15.77;14.27;;;27.60;41.30;;;;;;2265636;61;20360;-57
2021/07/25 04:39:57;0.00;0.00;0.62;0.00;0.00;0.62;17.80;16.10;;;27.60;41.30;;;;;;2265685;61;20407;-60
2021/07/25 04:42:29;0.00;0.00;0.62;0.00;0.00;0.62;18.73;16.97;;;27.60;41.30;;;;;;2266159;61;20378;-59
2021/07/25 04:45:05;0.00;0.00;0.62;0.00;0.00;0.62;18.17;16.13;;;27.60;41.30;;;;;;2265698;61;20391;-60
2021/07/25 04:47:40;0.00;0.00;0.62;0.00;0.00;0.62;16.83;15.23;;;27.60;41.30;;;;;;2265865;61;20350;-58
2021/07/25 04:50:15;0.00;0.00;0.62;0.00;0.00;0.62;14.70;13.40;;;27.60;41.30;;;;;;2265845;61;20358;-57
2021/07/25 04:52:44;0.00;0.00;0.62;0.00;0.00;0.62;15.20;13.80;;;27.60;41.30;;;;;;2265957;61;20381;-60
2021/07/25 04:55:13;0.00;0.00;0.62;0.00;0.00;0.62;15.90;14.40;;;27.60;41.30;;;;;;2265741;61;20366;-58
2021/07/25 04:57:42;0.00;0.00;0.62;0.00;0.00;0.62;15.80;14.40;;;27.60;41.30;;;;;;2265648;61;20396;-61
2021/07/25 05:00:14;0.00;0.00;0.62;0.00;0.00;0.62;18.23;16.43;;;27.60;41.30;;;;;;2265821;61;20576;-61
2021/07/25 05:02:43;0.00;0.00;0.62;0.00;0.00;0.62;17.97;16.27;;;27.60;41.40;;;;;;2265613;61;20378;-58
2021/07/25 05:05:11;0.00;0.00;0.62;0.00;0.00;0.62;18.03;16.17;;;27.60;41.30;;;;;;2257655;61;20579;-60
2021/07/25 05:07:40;0.00;0.00;0.62;0.00;0.00;0.62;17.30;15.60;;;27.60;41.30;;;;;;2261992;61;20362;-59
2021/07/25 05:10:09;0.00;0.00;0.62;0.00;0.00;0.62;17.10;15.40;;;27.60;41.30;;;;;;2261649;61;20689;-58
2021/07/25 05:12:44;0.00;0.00;0.62;0.00;0.00;0.62;16.60;14.90;;;27.60;41.30;;;;;;2261705;61;20596;-59
2021/07/25 05:15:18;0.00;0.00;0.62;0.00;0.00;0.62;17.50;15.70;;;27.60;41.30;;;;;;2261848;61;20654;-58
2021/07/25 05:17:54;0.00;0.00;0.62;0.00;0.00;0.62;15.27;13.77;;;27.60;41.40;;;;;;2263336;61;20369;-56
2021/07/25 05:20:27;0.00;0.00;0.62;0.00;0.00;0.62;15.30;13.83;;;27.60;41.40;;;;;;2265632;61;20357;-58
2021/07/25 05:23:02;0.00;0.00;0.62;0.00;0.00;0.62;15.70;14.20;;;27.60;41.30;;;;;;2265994;61;20370;-58
2021/07/25 05:25:31;0.00;0.00;0.62;0.00;0.00;0.62;15.20;13.90;;;27.60;41.40;;;;;;2265594;61;20674;-58
2021/07/25 05:28:05;0.00;0.00;0.62;0.00;0.00;0.62;16.60;15.10;;;27.60;41.30;;;;;;2261674;61;20434;-55
2021/07/25 05:30:39;0.00;0.00;0.62;0.00;0.00;0.62;14.10;12.77;;;27.60;41.40;;;;;;2265966;61;20358;-59
2021/07/25 05:33:07;0.00;0.00;0.62;0.00;0.00;0.62;16.37;14.67;;;27.60;41.30;;;;;;2265741;61;20650;-60
2021/07/25 05:35:34;0.00;0.00;0.62;0.00;0.00;0.62;17.30;15.67;;;27.60;41.40;;;;;;2265499;61;20357;-61
2021/07/25 05:38:01;0.00;0.00;0.62;0.00;0.00;0.62;15.33;13.73;;;27.60;41.40;;;;;;2265729;61;20354;-60
2021/07/25 05:40:27;0.00;0.00;0.62;0.00;0.00;0.62;16.63;14.93;;;27.60;41.50;;;;;;2265462;61;20363;-59
2021/07/25 05:42:54;0.00;0.00;0.62;0.00;0.00;0.62;16.13;14.43;;;27.60;41.60;;;;;;2265371;61;20378;-60
2021/07/25 05:45:21;0.00;0.00;0.62;0.00;0.00;0.62;16.10;14.53;;;27.60;41.70;;;;;;2262228;61;20400;-56
2021/07/25 05:47:49;0.00;0.00;0.62;0.00;0.00;0.62;15.30;13.80;;;27.60;41.70;;;;;;2265669;61;20354;-58
2021/07/25 05:50:15;0.00;0.00;0.62;0.00;0.00;0.62;15.27;13.77;;;27.60;41.60;;;;;;2261530;61;20390;-60
2021/07/25 05:52:45;0.00;0.00;0.62;0.00;0.00;0.62;14.23;12.93;;;27.60;41.60;;;;;;2265902;61;20860;-58
2021/07/25 05:55:13;0.00;0.00;0.62;0.00;0.00;0.62;14.73;13.37;;;27.60;41.70;;;;;;2265602;61;20448;-60
2021/07/25 05:57:39;0.00;0.00;0.62;0.00;0.00;0.62;15.27;13.77;;;27.60;41.70;;;;;;2265204;61;20425;-61
2021/07/25 06:00:07;0.00;0.00;0.62;0.00;0.00;0.62;15.97;14.40;;;27.60;41.70;;;;;;2265711;61;20361;-57
2021/07/25 06:02:52;0.00;0.00;0.62;0.00;0.00;0.62;14.07;12.80;;;27.60;41.70;;;;;;2265506;61;20676;-59
2021/07/25 06:05:20;0.00;0.00;0.62;0.00;0.00;0.62;16.43;15.03;;;27.60;41.70;;;;;;2261192;61;20703;-59
2021/07/25 06:07:47;0.00;0.00;0.62;0.00;0.00;0.62;14.60;13.30;;;27.70;41.70;;;;;;2261912;61;20351;-61
2021/07/25 06:10:14;0.00;0.00;0.62;0.00;0.00;0.62;14.73;13.20;;;27.70;41.70;;;;;;2261618;61;20438;-54
2021/07/25 06:12:41;0.00;0.00;0.62;0.00;0.00;0.62;14.83;13.43;;;27.70;41.70;;;;;;2261011;61;20370;-59
2021/07/25 06:15:09;0.00;0.00;0.62;0.00;0.00;0.62;16.00;14.50;;;27.70;41.80;;;;;;2261866;61;20402;-60
2021/07/25 06:17:36;0.00;0.00;0.62;0.00;0.00;0.62;16.73;15.10;;;27.70;41.70;;;;;;2263142;61;20381;-55
2021/07/25 06:20:06;0.00;0.00;0.62;0.00;0.00;0.62;16.37;13.53;;;27.70;41.80;;;;;;2264928;61;20361;-60
2021/07/25 06:22:38;0.00;0.00;0.62;0.00;0.00;0.62;16.00;14.20;;;27.70;41.70;;;;;;2265904;61;20447;-59
2021/07/25 06:25:06;0.00;0.00;0.62;0.00;0.00;0.62;14.50;13.10;;;27.70;41.70;;;;;;2265752;61;20437;-57
2021/07/25 06:27:35;0.00;0.00;0.62;0.00;0.00;0.62;13.73;12.33;;;27.70;41.70;;;;;;2265212;61;20377;-61
2021/07/25 06:30:02;0.00;0.00;0.62;0.00;0.00;0.62;14.57;13.17;;;27.70;41.70;;;;;;2265783;61;20363;-57
2021/07/25 06:32:29;0.00;0.00;0.62;0.00;0.00;0.62;15.13;13.80;;;27.70;41.70;;;;;;2265806;61;20388;-56
2021/07/25 06:34:55;0.00;0.00;0.62;0.00;0.00;0.62;14.43;13.03;;;27.70;41.70;;;;;;2265102;61;20388;-59
2021/07/25 06:37:24;0.00;0.00;0.62;0.00;0.00;0.62;16.03;14.53;;;27.80;41.80;;;;;;2265860;61;20361;-57
2021/07/25 06:39:51;0.00;0.00;0.62;0.00;0.00;0.62;15.40;13.90;;;27.80;41.80;;;;;;2265439;61;20364;-61
2021/07/25 06:42:18;0.00;0.00;0.62;0.00;0.00;0.62;15.13;13.60;;;27.80;41.50;;;;;;2265074;61;20358;-59
2021/07/25 06:44:44;0.00;0.00;0.62;0.00;0.00;0.62;15.50;14.00;;;27.80;41.40;;;;;;2265931;61;20425;-58
2021/07/25 06:47:11;0.00;0.00;0.62;0.00;0.00;0.62;15.97;14.40;;;27.80;41.40;;;;;;2265395;61;20709;-59
2021/07/25 06:49:37;0.00;0.00;0.62;0.00;0.00;0.62;16.17;14.60;;;27.80;41.30;;;;;;2265124;61;20447;-60
2021/07/25 06:52:06;0.00;0.00;0.62;0.00;0.00;0.62;16.57;14.10;;;27.70;41.20;;;;;;2265702;61;20417;-59
2021/07/25 06:54:34;0.00;0.00;0.62;0.00;0.00;0.62;16.00;14.50;;;27.70;41.20;;;;;;2265554;61;20418;-58
2021/07/25 06:57:01;0.00;0.00;0.62;0.00;0.00;0.62;15.97;14.27;;;27.70;41.10;;;;;;2265013;61;20358;-60
2021/07/25 06:59:27;0.00;0.00;0.62;0.00;0.00;0.62;15.67;13.93;;;27.70;41.10;;;;;;2265619;61;20350;-61
2021/07/25 07:01:54;0.00;0.00;0.62;0.00;0.00;0.62;17.17;15.37;;;27.70;41.20;;;;;;2265475;61;20399;-62
2021/07/25 07:04:21;0.00;0.00;0.62;0.00;0.00;0.62;15.67;13.97;;;27.70;41.40;;;;;;2261886;61;20382;-58
2021/07/25 07:06:48;0.00;0.00;0.62;0.00;0.00;0.62;16.33;14.13;;;27.60;41.30;;;;;;2258059;61;20357;-60
2021/07/25 07:09:15;0.00;0.00;0.62;0.00;0.00;0.62;14.53;13.10;;;27.60;41.50;;;;;;2261440;61;20354;-61
2021/07/25 07:11:43;0.00;0.00;0.62;0.00;0.00;0.62;16.33;13.10;;;27.60;41.50;;;;;;2260894;61;20550;-61
2021/07/25 07:14:09;0.00;0.00;0.62;0.00;0.00;0.62;15.53;14.03;;;27.60;41.60;;;;;;2257985;61;20792;-60
2021/07/25 07:16:36;0.00;0.00;0.62;0.00;0.00;0.62;14.87;13.53;;;27.60;41.70;;;;;;2261502;61;20718;-58
2021/07/25 07:19:03;0.00;0.00;0.62;0.00;0.00;0.62;14.90;13.50;;;27.70;41.70;;;;;;2264752;61;20574;-57
2021/07/25 07:21:29;0.00;0.00;0.62;0.00;0.00;0.62;13.80;12.40;;;27.70;41.60;;;;;;2265710;61;20358;-59
2021/07/25 07:23:56;0.00;0.00;0.62;0.00;0.00;0.62;14.70;13.20;;;27.70;41.50;;;;;;2265565;61;20366;-57
2021/07/25 07:26:23;0.00;0.00;0.62;0.00;0.00;0.62;14.80;13.30;;;27.70;41.60;;;;;;2264877;61;20384;-58
2021/07/25 07:28:51;0.00;0.00;0.62;0.00;0.00;0.62;15.20;13.63;;;27.70;41.70;;;;;;2265739;61;20362;-60
2021/07/25 07:31:17;0.00;0.00;0.62;0.00;0.00;0.62;14.57;13.07;;;27.70;41.70;;;;;;2265271;61;20368;-61
2021/07/25 07:33:44;0.00;0.00;0.62;0.00;0.00;0.62;14.10;12.80;;;27.70;41.60;;;;;;2265050;61;20447;-61
2021/07/25 07:36:11;0.00;0.00;0.62;0.00;0.00;0.62;14.87;13.37;;;27.70;41.60;;;;;;2265488;61;20567;-56
2021/07/25 07:38:37;0.00;0.00;0.62;0.00;0.00;0.62;13.70;12.33;;;27.70;41.60;;;;;;2265340;61;20353;-60
2021/07/25 07:41:04;0.00;0.00;0.62;0.00;0.00;0.62;14.03;12.60;;;27.70;41.60;;;;;;2265068;61;20361;-60
2021/07/25 07:43:31;0.00;0.00;0.62;0.00;0.00;0.62;17.20;14.70;;;27.70;41.70;;;;;;2265622;61;20370;-60
2021/07/25 07:45:59;0.00;0.00;0.62;0.00;0.00;0.62;14.80;13.33;;;27.70;41.70;;;;;;2261541;61;20360;-59
2021/07/25 07:48:26;0.00;0.00;0.62;0.00;0.00;0.62;14.47;13.00;;;27.80;41.80;;;;;;2261491;61;20353;-58
2021/07/25 07:50:54;0.00;0.00;0.62;0.00;0.00;0.62;14.50;13.20;;;27.70;41.70;;;;;;2265492;61;20733;-60
2021/07/25 07:53:20;0.00;0.00;0.62;0.00;0.00;0.62;14.70;13.17;;;27.70;41.70;;;;;;2261335;61;20381;-59
2021/07/25 07:55:47;0.00;0.00;0.62;0.00;0.00;0.62;18.00;13.80;;;27.70;41.80;;;;;;2264435;61;20362;-59
2021/07/25 07:58:14;0.00;0.00;0.62;0.00;0.00;0.62;14.23;12.73;;;27.70;41.70;;;;;;2260134;61;20354;-60
2021/07/25 08:00:41;0.00;0.00;0.62;0.00;0.00;0.62;14.40;13.00;;;27.70;41.70;;;;;;2264948;61;20569;-58
2021/07/25 08:03:09;0.00;0.00;0.62;0.00;0.00;0.62;14.53;13.03;;;27.70;41.70;;;;;;2264902;61;20377;-60
2021/07/25 08:05:36;0.00;0.00;0.62;0.00;0.00;0.62;12.70;11.30;;;27.70;41.70;;;;;;2265293;61;20366;-56
2021/07/25 08:08:03;0.00;0.00;0.62;0.00;0.00;0.62;12.47;11.27;;;27.70;41.50;;;;;;2265340;61;20356;-59
2021/07/25 08:10:30;0.00;0.00;0.62;0.00;0.00;0.62;12.90;11.53;;;27.70;41.40;;;;;;2257811;61;20362;-58
2021/07/25 08:12:56;0.00;0.00;0.62;0.00;0.00;0.62;12.90;11.70;;;27.70;41.40;;;;;;2265010;61;20374;-57
2021/07/25 08:15:23;0.00;0.00;0.62;0.00;0.00;0.62;13.50;12.20;;;27.70;41.40;;;;;;2265327;61;20358;-59
2021/07/25 08:17:50;0.00;0.00;0.62;0.00;0.00;0.62;12.93;11.73;;;27.70;41.40;;;;;;2264965;61;20356;-59
2021/07/25 08:20:18;0.00;0.00;0.62;0.00;0.00;0.62;12.40;11.03;;;27.80;41.40;;;;;;2261251;61;20403;-59
2021/07/25 08:22:45;0.00;0.00;0.62;0.00;0.00;0.62;12.97;11.67;;;27.80;41.30;;;;;;2265260;61;20449;-55
2021/07/25 08:25:12;0.00;0.00;0.62;0.00;0.00;0.62;13.37;11.90;;;27.80;41.30;;;;;;2265010;61;20580;-58
2021/07/25 08:27:39;0.00;0.00;0.62;0.00;0.00;0.62;13.37;12.07;;;27.80;41.30;;;;;;2265115;61;20576;-59
2021/07/25 08:30:07;0.00;0.00;0.62;0.00;0.00;0.62;14.27;12.03;;;27.80;41.30;;;;;;2265167;61;20725;-57
2021/07/25 08:32:34;0.00;0.00;0.62;0.00;0.00;0.62;13.07;11.67;;;27.80;41.20;;;;;;2265021;61;20400;-60
2021/07/25 08:35:00;0.00;0.00;0.62;0.00;0.00;0.62;12.13;11.10;;;27.80;41.20;;;;;;2265022;61;20770;-62
2021/07/25 08:37:29;0.00;0.00;0.62;0.00;0.00;0.62;13.70;12.40;;;27.80;41.20;;;;;;2265268;61;20347;-60
2021/07/25 08:39:56;0.00;0.00;0.62;0.00;0.00;0.62;13.40;12.10;;;27.80;41.30;;;;;;2265490;61;20782;-60
2021/07/25 08:42:24;0.00;0.00;0.62;0.00;0.00;0.62;12.10;10.90;;;27.90;41.30;;;;;;2265804;61;20361;-60
2021/07/25 08:44:53;0.00;0.00;0.62;0.00;0.00;0.62;13.90;12.43;;;27.90;41.30;;;;;;2265956;61;20356;-60
2021/07/25 08:47:32;0.00;0.00;0.62;0.00;0.00;0.62;14.63;12.30;;;27.90;41.30;;;;;;2265694;61;20815;-59
2021/07/25 08:50:02;0.00;0.00;0.62;0.00;0.00;0.62;12.90;11.70;;;27.90;41.20;;;;;;2265647;61;20362;-54
2021/07/25 08:52:32;0.00;0.00;0.62;0.00;0.00;0.62;23.13;10.70;;;27.90;41.10;;;;;;2265846;61;20392;-55
2021/07/25 08:55:01;0.00;0.00;0.62;0.00;0.00;0.62;14.00;12.57;;;27.90;41.10;;;;;;2265564;61;20607;-55
2021/07/25 08:57:30;0.00;0.00;0.62;0.00;0.00;0.62;12.97;11.77;;;27.90;41.10;;;;;;2265869;61;20561;-58
2021/07/25 08:59:58;0.00;0.00;0.62;0.00;0.00;0.62;12.90;11.33;;;28.00;41.30;;;;;;2265657;61;20361;-59
2021/07/25 09:02:27;0.00;0.00;0.62;0.00;0.00;0.62;12.33;11.00;;;28.00;41.20;;;;;;2261716;61;20374;-61
2021/07/25 09:04:55;0.00;0.00;0.62;0.00;0.00;0.62;11.70;10.20;;;28.00;41.10;;;;;;2265806;61;20425;-54
2021/07/25 09:07:23;0.00;0.00;0.62;0.00;0.00;0.62;12.80;10.47;;;28.00;41.10;;;;;;2265926;61;20740;-53
2021/07/25 09:09:57;0.00;0.00;0.62;0.00;0.00;0.62;11.67;10.57;;;28.00;41.10;;;;;;2265615;61;20612;-57
2021/07/25 09:12:25;0.00;0.00;0.62;0.00;0.00;0.62;12.97;11.77;;;28.00;41.00;;;;;;2265902;61;20363;-56
2021/07/25 09:14:54;0.00;0.00;0.62;0.00;0.00;0.62;12.60;11.30;;;28.00;40.80;;;;;;2265859;61;20378;-55
2021/07/25 09:17:22;0.00;0.00;0.62;0.00;0.00;0.62;12.67;11.40;;;28.10;40.80;;;;;;2265281;61;20760;-53
2021/07/25 09:20:12;0.00;0.00;0.62;0.00;0.00;0.62;11.73;10.63;;;28.10;40.60;;;;;;2265713;61;20438;-55
2021/07/25 09:22:57;0.00;0.00;0.62;0.00;0.00;0.62;11.50;10.33;;;28.10;40.50;;;;;;2265965;61;20378;-52
2021/07/25 09:25:35;0.00;0.00;0.62;0.00;0.00;0.62;11.17;10.10;;;28.10;40.30;;;;;;2265223;61;20664;-56
2021/07/25 09:28:16;0.00;0.00;0.62;0.00;0.00;0.62;12.27;11.07;;;28.10;40.20;;;;;;2265822;61;20385;-54
2021/07/25 09:30:42;0.00;0.00;0.62;0.00;0.00;0.62;11.80;10.23;;;28.20;40.30;;;;;;2265680;61;20682;-55
2021/07/25 09:33:33;0.00;0.00;0.62;0.00;0.00;0.62;13.20;10.90;;;28.20;40.20;;;;;;2265173;61;20417;-51
2021/07/25 09:36:13;0.00;0.00;0.62;0.00;0.00;0.62;12.83;10.77;;;28.20;40.30;;;;;;2263321;61;20365;-57